Terminal Aerodrome Forecast
Issued by NWS Charleston, WV

Current Version | Previous Version | Graphics & Text | Print | Product List | Glossary On
Versions: 1 2 3 4 5 6 7 8 9 10 11 12 13 14 15 16 17 18 19 20 21 22 23
000
FTUS41 KRLX 270148 AAA
TAFBKW
TAF AMD
KBKW 270148Z 2702/2724 18011G18KT P6SM VCTS SCT035 BKN050CB
      TEMPO 2702/2703 6SM SHRA BKN035
     FM270300 18010KT P6SM -SHRA BKN040
     FM270500 17007KT P6SM BKN035
     FM270700 16004KT P6SM OVC020
     FM270900 16005KT P6SM OVC012
     FM271400 23006KT P6SM BKN040=

USA.gov is the U.S. government's official web portal to all federal, state and local government web resources and services.